In Rescue
 
Open Full Screen Window  High Contrast Mode
Wind Gusting 00 knots
08
November 29, 2022 9:06 AM CST
Weather Information
Wind Direction
  200 °
Wind Speed
  08 kt (9 mph)
Wind Gust
  00 kt (0 mph)
Altimeter
29.73 in
Visibility
10 SM
Temperature
-06° C
21° F
Dewpoint
-10° C
14° F
Humidity
74%
1hr Rain Fall
00.00 in.
24hr Rain Fall
00.00 in.
Sky Condition
Clear
VFR

METAR KFOZ 291506Z AUTO 20008KT 10SM CLR M06/M10 A2973 RMK AO2

FAA Disclaimer: The data displayed is for advisory purposes only and is not to be used for flight planning or operations.